sensor_id;sensor_type;location;lat;lon;timestamp;P1;durP1;ratioP1;P2;durP2;ratioP2
59099;SDS011;44884;52.730;6.964;2024-02-16T00:02:20;4.20;;;3.80;;
59099;SDS011;44884;52.730;6.964;2024-02-16T00:04:47;6.38;;;4.20;;
59099;SDS011;44884;52.730;6.964;2024-02-16T00:07:13;5.65;;;4.25;;
59099;SDS011;44884;52.730;6.964;2024-02-16T00:09:39;5.45;;;4.88;;
59099;SDS011;44884;52.730;6.964;2024-02-16T00:12:05;8.25;;;4.85;;
59099;SDS011;44884;52.730;6.964;2024-02-16T00:14:31;5.20;;;4.35;;
59099;SDS011;44884;52.730;6.964;2024-02-16T00:16:57;7.95;;;5.18;;
59099;SDS011;44884;52.730;6.964;2024-02-16T00:19:24;5.05;;;4.50;;
59099;SDS011;44884;52.730;6.964;2024-02-16T00:21:50;6.80;;;4.60;;
59099;SDS011;44884;52.730;6.964;2024-02-16T00:24:16;5.53;;;4.40;;
59099;SDS011;44884;52.730;6.964;2024-02-16T00:26:42;5.80;;;4.50;;
59099;SDS011;44884;52.730;6.964;2024-02-16T00:29:10;7.10;;;4.07;;
59099;SDS011;44884;52.730;6.964;2024-02-16T00:31:36;5.85;;;5.25;;
59099;SDS011;44884;52.730;6.964;2024-02-16T00:34:03;5.25;;;4.32;;
59099;SDS011;44884;52.730;6.964;2024-02-16T00:36:29;4.43;;;3.97;;
59099;SDS011;44884;52.730;6.964;2024-02-16T00:38:56;5.75;;;4.10;;
59099;SDS011;44884;52.730;6.964;2024-02-16T00:41:22;4.32;;;3.92;;
59099;SDS011;44884;52.730;6.964;2024-02-16T00:43:49;4.00;;;3.60;;
59099;SDS011;44884;52.730;6.964;2024-02-16T00:46:16;5.32;;;4.65;;
59099;SDS011;44884;52.730;6.964;2024-02-16T00:48:42;6.88;;;4.68;;
59099;SDS011;44884;52.730;6.964;2024-02-16T00:51:08;4.30;;;3.90;;
59099;SDS011;44884;52.730;6.964;2024-02-16T00:53:34;5.57;;;4.45;;
59099;SDS011;44884;52.730;6.964;2024-02-16T00:56:00;5.40;;;4.63;;
59099;SDS011;44884;52.730;6.964;2024-02-16T00:58:27;6.07;;;4.50;;
59099;SDS011;44884;52.730;6.964;2024-02-16T01:00:53;4.05;;;3.58;;
59099;SDS011;44884;52.730;6.964;2024-02-16T01:03:19;4.80;;;3.85;;
59099;SDS011;44884;52.730;6.964;2024-02-16T01:05:47;6.00;;;4.57;;
59099;SDS011;44884;52.730;6.964;2024-02-16T01:08:13;5.85;;;4.15;;
59099;SDS011;44884;52.730;6.964;2024-02-16T01:10:39;6.22;;;4.53;;
59099;SDS011;44884;52.730;6.964;2024-02-16T01:13:05;5.80;;;4.35;;
59099;SDS011;44884;52.730;6.964;2024-02-16T01:15:31;5.25;;;4.57;;
59099;SDS011;44884;52.730;6.964;2024-02-16T01:17:58;4.93;;;4.38;;
59099;SDS011;44884;52.730;6.964;2024-02-16T01:20:25;4.65;;;4.15;;
59099;SDS011;44884;52.730;6.964;2024-02-16T01:22:51;4.00;;;3.60;;
59099;SDS011;44884;52.730;6.964;2024-02-16T01:25:17;4.72;;;4.22;;
59099;SDS011;44884;52.730;6.964;2024-02-16T01:27:43;6.28;;;4.30;;
59099;SDS011;44884;52.730;6.964;2024-02-16T01:30:09;5.07;;;4.38;;
59099;SDS011;44884;52.730;6.964;2024-02-16T01:32:35;6.00;;;4.70;;
59099;SDS011;44884;52.730;6.964;2024-02-16T01:35:01;4.85;;;3.95;;
59099;SDS011;44884;52.730;6.964;2024-02-16T01:37:28;8.43;;;4.47;;
59099;SDS011;44884;52.730;6.964;2024-02-16T01:39:54;3.90;;;3.40;;
59099;SDS011;44884;52.730;6.964;2024-02-16T01:42:20;4.78;;;4.28;;
59099;SDS011;44884;52.730;6.964;2024-02-16T01:44:46;4.78;;;3.90;;
59099;SDS011;44884;52.730;6.964;2024-02-16T01:47:12;5.00;;;4.30;;
59099;SDS011;44884;52.730;6.964;2024-02-16T01:49:38;5.70;;;4.28;;
59099;SDS011;44884;52.730;6.964;2024-02-16T01:52:04;6.32;;;4.00;;
59099;SDS011;44884;52.730;6.964;2024-02-16T01:54:31;5.30;;;4.15;;
59099;SDS011;44884;52.730;6.964;2024-02-16T01:56:57;4.35;;;3.95;;
59099;SDS011;44884;52.730;6.964;2024-02-16T01:59:23;4.82;;;4.32;;
59099;SDS011;44884;52.730;6.964;2024-02-16T02:01:49;4.78;;;4.28;;
59099;SDS011;44884;52.730;6.964;2024-02-16T02:04:16;4.55;;;4.10;;
59099;SDS011;44884;52.730;6.964;2024-02-16T02:06:42;4.65;;;3.78;;
59099;SDS011;44884;52.730;6.964;2024-02-16T02:09:08;5.63;;;4.38;;
59099;SDS011;44884;52.730;6.964;2024-02-16T02:11:34;6.60;;;4.38;;
59099;SDS011;44884;52.730;6.964;2024-02-16T02:14:00;6.82;;;3.78;;
59099;SDS011;44884;52.730;6.964;2024-02-16T02:16:26;9.95;;;4.50;;
59099;SDS011;44884;52.730;6.964;2024-02-16T02:18:52;5.43;;;4.82;;
59099;SDS011;44884;52.730;6.964;2024-02-16T02:21:19;4.57;;;4.10;;
59099;SDS011;44884;52.730;6.964;2024-02-16T02:23:45;4.18;;;3.50;;
59099;SDS011;44884;52.730;6.964;2024-02-16T02:26:14;5.40;;;4.15;;
59099;SDS011;44884;52.730;6.964;2024-02-16T02:28:41;4.47;;;3.97;;
59099;SDS011;44884;52.730;6.964;2024-02-16T02:31:08;4.55;;;3.92;;
59099;SDS011;44884;52.730;6.964;2024-02-16T02:33:34;5.30;;;4.70;;
59099;SDS011;44884;52.730;6.964;2024-02-16T02:36:00;6.00;;;4.60;;
59099;SDS011;44884;52.730;6.964;2024-02-16T02:38:27;5.07;;;4.32;;
59099;SDS011;44884;52.730;6.964;2024-02-16T02:40:53;5.85;;;4.57;;
59099;SDS011;44884;52.730;6.964;2024-02-16T02:43:19;5.97;;;4.18;;
59099;SDS011;44884;52.730;6.964;2024-02-16T02:45:47;5.60;;;3.60;;
59099;SDS011;44884;52.730;6.964;2024-02-16T02:48:13;7.90;;;4.05;;
59099;SDS011;44884;52.730;6.964;2024-02-16T02:50:39;6.97;;;4.65;;
59099;SDS011;44884;52.730;6.964;2024-02-16T02:53:05;7.97;;;4.13;;
59099;SDS011;44884;52.730;6.964;2024-02-16T02:55:31;4.15;;;3.72;;
59099;SDS011;44884;52.730;6.964;2024-02-16T02:57:57;4.55;;;4.10;;
59099;SDS011;44884;52.730;6.964;2024-02-16T03:00:23;5.57;;;4.32;;
59099;SDS011;44884;52.730;6.964;2024-02-16T03:02:50;8.82;;;4.63;;
59099;SDS011;44884;52.730;6.964;2024-02-16T03:05:17;5.75;;;3.97;;
59099;SDS011;44884;52.730;6.964;2024-02-16T03:07:45;4.05;;;3.65;;
59099;SDS011;44884;52.730;6.964;2024-02-16T03:10:11;6.50;;;4.50;;
59099;SDS011;44884;52.730;6.964;2024-02-16T03:12:37;5.03;;;3.97;;
59099;SDS011;44884;52.730;6.964;2024-02-16T03:15:03;4.18;;;3.55;;
59099;SDS011;44884;52.730;6.964;2024-02-16T03:17:29;4.60;;;3.78;;
59099;SDS011;44884;52.730;6.964;2024-02-16T03:19:55;5.63;;;3.92;;
59099;SDS011;44884;52.730;6.964;2024-02-16T03:22:21;4.65;;;3.60;;
59099;SDS011;44884;52.730;6.964;2024-02-16T03:24:47;5.22;;;4.07;;
59099;SDS011;44884;52.730;6.964;2024-02-16T03:27:13;4.30;;;3.47;;
59099;SDS011;44884;52.730;6.964;2024-02-16T03:29:40;4.30;;;3.90;;
59099;SDS011;44884;52.730;6.964;2024-02-16T03:32:06;5.28;;;4.05;;
59099;SDS011;44884;52.730;6.964;2024-02-16T03:34:32;6.28;;;4.20;;
59099;SDS011;44884;52.730;6.964;2024-02-16T03:36:58;4.05;;;3.33;;
59099;SDS011;44884;52.730;6.964;2024-02-16T03:39:24;5.43;;;3.88;;
59099;SDS011;44884;52.730;6.964;2024-02-16T03:41:50;4.22;;;3.70;;
59099;SDS011;44884;52.730;6.964;2024-02-16T03:44:16;7.35;;;4.18;;
59099;SDS011;44884;52.730;6.964;2024-02-16T03:46:42;3.55;;;3.25;;
59099;SDS011;44884;52.730;6.964;2024-02-16T03:49:09;4.35;;;3.95;;
59099;SDS011;44884;52.730;6.964;2024-02-16T03:51:35;5.75;;;4.35;;
59099;SDS011;44884;52.730;6.964;2024-02-16T03:54:02;4.88;;;3.80;;
59099;SDS011;44884;52.730;6.964;2024-02-16T03:56:29;4.47;;;3.90;;
59099;SDS011;44884;52.730;6.964;2024-02-16T03:58:55;4.35;;;3.95;;
59099;SDS011;44884;52.730;6.964;2024-02-16T04:01:21;6.28;;;3.90;;
59099;SDS011;44884;52.730;6.964;2024-02-16T04:03:47;6.72;;;4.43;;
59099;SDS011;44884;52.730;6.964;2024-02-16T04:06:13;5.82;;;3.90;;
59099;SDS011;44884;52.730;6.964;2024-02-16T04:08:39;4.50;;;4.00;;
59099;SDS011;44884;52.730;6.964;2024-02-16T04:11:05;4.30;;;3.90;;
59099;SDS011;44884;52.730;6.964;2024-02-16T04:13:31;4.25;;;3.83;;
59099;SDS011;44884;52.730;6.964;2024-02-16T04:15:58;4.30;;;3.60;;
59099;SDS011;44884;52.730;6.964;2024-02-16T04:18:24;4.78;;;3.58;;
59099;SDS011;44884;52.730;6.964;2024-02-16T04:20:50;6.82;;;4.53;;
59099;SDS011;44884;52.730;6.964;2024-02-16T04:23:16;5.97;;;3.90;;
59099;SDS011;44884;52.730;6.964;2024-02-16T04:25:42;4.38;;;3.97;;
59099;SDS011;44884;52.730;6.964;2024-02-16T04:28:08;6.10;;;4.03;;
59099;SDS011;44884;52.730;6.964;2024-02-16T04:30:34;4.78;;;4.22;;
59099;SDS011;44884;52.730;6.964;2024-02-16T04:33:00;5.30;;;4.10;;
59099;SDS011;44884;52.730;6.964;2024-02-16T04:35:26;5.35;;;3.55;;
59099;SDS011;44884;52.730;6.964;2024-02-16T04:37:52;6.90;;;4.03;;
59099;SDS011;44884;52.730;6.964;2024-02-16T04:40:18;5.22;;;4.15;;
59099;SDS011;44884;52.730;6.964;2024-02-16T04:42:44;4.15;;;3.40;;
59099;SDS011;44884;52.730;6.964;2024-02-16T04:45:11;4.05;;;3.35;;
59099;SDS011;44884;52.730;6.964;2024-02-16T04:47:38;4.72;;;3.63;;
59099;SDS011;44884;52.730;6.964;2024-02-16T04:50:04;4.70;;;3.90;;
59099;SDS011;44884;52.730;6.964;2024-02-16T04:52:31;6.13;;;3.65;;
59099;SDS011;44884;52.730;6.964;2024-02-16T04:54:56;5.13;;;3.95;;
59099;SDS011;44884;52.730;6.964;2024-02-16T04:57:22;5.75;;;3.42;;
59099;SDS011;44884;52.730;6.964;2024-02-16T04:59:48;4.95;;;3.70;;
59099;SDS011;44884;52.730;6.964;2024-02-16T05:02:15;6.80;;;4.18;;
59099;SDS011;44884;52.730;6.964;2024-02-16T05:04:41;3.65;;;3.35;;
59099;SDS011;44884;52.730;6.964;2024-02-16T05:07:07;4.90;;;4.40;;
59099;SDS011;44884;52.730;6.964;2024-02-16T05:09:33;4.05;;;3.63;;
59099;SDS011;44884;52.730;6.964;2024-02-16T05:11:59;3.90;;;3.58;;
59099;SDS011;44884;52.730;6.964;2024-02-16T05:14:25;6.13;;;4.28;;
59099;SDS011;44884;52.730;6.964;2024-02-16T05:16:51;3.88;;;3.47;;
59099;SDS011;44884;52.730;6.964;2024-02-16T05:19:17;4.35;;;3.83;;
59099;SDS011;44884;52.730;6.964;2024-02-16T05:21:43;4.75;;;4.03;;
59099;SDS011;44884;52.730;6.964;2024-02-16T05:24:09;4.10;;;3.45;;
59099;SDS011;44884;52.730;6.964;2024-02-16T05:26:36;4.00;;;3.53;;
59099;SDS011;44884;52.730;6.964;2024-02-16T05:29:02;4.38;;;3.70;;
59099;SDS011;44884;52.730;6.964;2024-02-16T05:31:29;5.10;;;4.15;;
59099;SDS011;44884;52.730;6.964;2024-02-16T05:33:56;8.68;;;3.90;;
59099;SDS011;44884;52.730;6.964;2024-02-16T05:36:22;3.85;;;3.40;;
59099;SDS011;44884;52.730;6.964;2024-02-16T05:38:55;4.90;;;4.07;;
59099;SDS011;44884;52.730;6.964;2024-02-16T05:41:21;4.00;;;3.60;;
59099;SDS011;44884;52.730;6.964;2024-02-16T05:43:47;4.20;;;3.67;;
59099;SDS011;44884;52.730;6.964;2024-02-16T05:46:14;4.45;;;3.70;;
59099;SDS011;44884;52.730;6.964;2024-02-16T05:48:40;4.28;;;3.72;;
59099;SDS011;44884;52.730;6.964;2024-02-16T05:51:07;5.00;;;3.83;;
59099;SDS011;44884;52.730;6.964;2024-02-16T05:53:33;4.40;;;4.00;;
59099;SDS011;44884;52.730;6.964;2024-02-16T05:56:00;3.53;;;3.20;;
59099;SDS011;44884;52.730;6.964;2024-02-16T05:58:26;4.28;;;3.72;;
59099;SDS011;44884;52.730;6.964;2024-02-16T06:00:53;3.78;;;3.38;;
59099;SDS011;44884;52.730;6.964;2024-02-16T06:03:19;3.92;;;3.55;;
59099;SDS011;44884;52.730;6.964;2024-02-16T06:05:45;4.10;;;3.63;;
59099;SDS011;44884;52.730;6.964;2024-02-16T06:08:12;4.43;;;4.03;;
59099;SDS011;44884;52.730;6.964;2024-02-16T06:10:38;5.03;;;3.47;;
59099;SDS011;44884;52.730;6.964;2024-02-16T06:13:04;5.45;;;4.40;;
59099;SDS011;44884;52.730;6.964;2024-02-16T06:15:31;4.10;;;3.78;;
59099;SDS011;44884;52.730;6.964;2024-02-16T06:17:59;5.47;;;3.60;;
59099;SDS011;44884;52.730;6.964;2024-02-16T06:20:25;4.60;;;3.67;;
59099;SDS011;44884;52.730;6.964;2024-02-16T06:22:51;4.53;;;3.88;;
59099;SDS011;44884;52.730;6.964;2024-02-16T06:25:18;5.65;;;3.95;;
59099;SDS011;44884;52.730;6.964;2024-02-16T06:27:44;5.43;;;4.32;;
59099;SDS011;44884;52.730;6.964;2024-02-16T06:30:13;5.90;;;4.40;;
59099;SDS011;44884;52.730;6.964;2024-02-16T06:32:39;5.55;;;4.00;;
59099;SDS011;44884;52.730;6.964;2024-02-16T06:35:06;6.75;;;4.07;;
59099;SDS011;44884;52.730;6.964;2024-02-16T06:37:32;5.10;;;3.67;;
59099;SDS011;44884;52.730;6.964;2024-02-16T06:39:58;5.75;;;4.40;;
59099;SDS011;44884;52.730;6.964;2024-02-16T06:42:24;4.22;;;3.83;;
59099;SDS011;44884;52.730;6.964;2024-02-16T06:44:51;4.32;;;3.92;;
59099;SDS011;44884;52.730;6.964;2024-02-16T06:47:17;8.07;;;4.10;;
59099;SDS011;44884;52.730;6.964;2024-02-16T06:49:43;5.45;;;4.25;;
59099;SDS011;44884;52.730;6.964;2024-02-16T06:52:11;5.47;;;4.78;;
59099;SDS011;44884;52.730;6.964;2024-02-16T06:54:37;4.45;;;4.05;;
59099;SDS011;44884;52.730;6.964;2024-02-16T06:57:03;6.18;;;4.05;;
59099;SDS011;44884;52.730;6.964;2024-02-16T06:59:30;4.25;;;3.85;;
59099;SDS011;44884;52.730;6.964;2024-02-16T07:01:56;5.65;;;4.50;;
59099;SDS011;44884;52.730;6.964;2024-02-16T07:04:22;4.63;;;3.72;;
59099;SDS011;44884;52.730;6.964;2024-02-16T07:06:48;4.25;;;3.85;;
59099;SDS011;44884;52.730;6.964;2024-02-16T07:09:15;9.57;;;3.97;;
59099;SDS011;44884;52.730;6.964;2024-02-16T07:11:41;3.67;;;3.33;;
59099;SDS011;44884;52.730;6.964;2024-02-16T07:14:11;6.47;;;3.65;;
59099;SDS011;44884;52.730;6.964;2024-02-16T07:16:38;5.68;;;3.85;;
59099;SDS011;44884;52.730;6.964;2024-02-16T07:19:04;5.93;;;3.55;;
59099;SDS011;44884;52.730;6.964;2024-02-16T07:21:30;7.15;;;4.25;;
59099;SDS011;44884;52.730;6.964;2024-02-16T07:23:56;4.80;;;4.07;;
59099;SDS011;44884;52.730;6.964;2024-02-16T07:26:22;4.85;;;4.28;;
59099;SDS011;44884;52.730;6.964;2024-02-16T07:28:48;4.90;;;3.58;;
59099;SDS011;44884;52.730;6.964;2024-02-16T07:31:14;5.55;;;3.88;;
59099;SDS011;44884;52.730;6.964;2024-02-16T07:33:41;5.82;;;3.88;;
59099;SDS011;44884;52.730;6.964;2024-02-16T07:36:07;4.32;;;3.92;;
59099;SDS011;44884;52.730;6.964;2024-02-16T07:38:33;4.53;;;3.60;;
59099;SDS011;44884;52.730;6.964;2024-02-16T07:40:59;4.22;;;3.83;;
59099;SDS011;44884;52.730;6.964;2024-02-16T07:43:27;4.28;;;3.88;;
59099;SDS011;44884;52.730;6.964;2024-02-16T07:45:53;5.20;;;4.45;;
59099;SDS011;44884;52.730;6.964;2024-02-16T07:48:19;3.88;;;3.40;;
59099;SDS011;44884;52.730;6.964;2024-02-16T07:50:46;4.22;;;3.83;;
59099;SDS011;44884;52.730;6.964;2024-02-16T07:53:12;5.03;;;4.05;;
59099;SDS011;44884;52.730;6.964;2024-02-16T07:55:38;4.25;;;3.20;;
59099;SDS011;44884;52.730;6.964;2024-02-16T07:58:04;4.60;;;3.60;;
59099;SDS011;44884;52.730;6.964;2024-02-16T08:00:30;3.95;;;3.55;;
59099;SDS011;44884;52.730;6.964;2024-02-16T08:02:56;5.35;;;4.18;;
59099;SDS011;44884;52.730;6.964;2024-02-16T08:05:22;4.57;;;3.97;;
59099;SDS011;44884;52.730;6.964;2024-02-16T08:07:50;5.50;;;3.92;;
59099;SDS011;44884;52.730;6.964;2024-02-16T08:10:19;4.80;;;3.53;;
59099;SDS011;44884;52.730;6.964;2024-02-16T08:15:16;4.85;;;4.32;;
59099;SDS011;44884;52.730;6.964;2024-02-16T08:17:48;4.55;;;3.67;;
59099;SDS011;44884;52.730;6.964;2024-02-16T08:20:15;5.72;;;4.03;;
59099;SDS011;44884;52.730;6.964;2024-02-16T08:22:41;5.80;;;4.00;;
59099;SDS011;44884;52.730;6.964;2024-02-16T08:25:07;5.70;;;3.97;;
59099;SDS011;44884;52.730;6.964;2024-02-16T08:27:33;4.22;;;3.70;;
59099;SDS011;44884;52.730;6.964;2024-02-16T08:29:59;4.50;;;3.97;;
59099;SDS011;44884;52.730;6.964;2024-02-16T08:32:27;4.78;;;3.72;;
59099;SDS011;44884;52.730;6.964;2024-02-16T08:34:54;5.55;;;4.80;;
59099;SDS011;44884;52.730;6.964;2024-02-16T08:37:21;4.40;;;3.97;;
59099;SDS011;44884;52.730;6.964;2024-02-16T08:39:47;7.80;;;3.88;;
59099;SDS011;44884;52.730;6.964;2024-02-16T08:42:13;5.90;;;4.43;;
59099;SDS011;44884;52.730;6.964;2024-02-16T08:44:40;5.38;;;4.43;;
59099;SDS011;44884;52.730;6.964;2024-02-16T08:47:07;5.18;;;4.28;;
59099;SDS011;44884;52.730;6.964;2024-02-16T08:49:34;7.00;;;4.40;;
59099;SDS011;44884;52.730;6.964;2024-02-16T08:52:00;5.93;;;4.03;;
59099;SDS011;44884;52.730;6.964;2024-02-16T08:54:26;8.05;;;4.78;;
59099;SDS011;44884;52.730;6.964;2024-02-16T08:56:55;6.15;;;4.55;;
59099;SDS011;44884;52.730;6.964;2024-02-16T08:59:21;4.10;;;3.65;;
59099;SDS011;44884;52.730;6.964;2024-02-16T09:01:47;4.93;;;3.67;;
59099;SDS011;44884;52.730;6.964;2024-02-16T09:04:13;4.63;;;4.22;;
59099;SDS011;44884;52.730;6.964;2024-02-16T09:06:40;4.18;;;3.78;;
59099;SDS011;44884;52.730;6.964;2024-02-16T09:09:07;5.13;;;4.60;;
59099;SDS011;44884;52.730;6.964;2024-02-16T09:11:33;5.30;;;4.07;;
59099;SDS011;44884;52.730;6.964;2024-02-16T09:13:59;4.50;;;4.10;;
59099;SDS011;44884;52.730;6.964;2024-02-16T09:16:25;4.95;;;4.03;;
59099;SDS011;44884;52.730;6.964;2024-02-16T09:18:51;6.97;;;4.47;;
59099;SDS011;44884;52.730;6.964;2024-02-16T09:21:18;5.43;;;4.40;;
59099;SDS011;44884;52.730;6.964;2024-02-16T09:23:44;5.57;;;4.05;;
59099;SDS011;44884;52.730;6.964;2024-02-16T09:26:10;7.38;;;4.80;;
59099;SDS011;44884;52.730;6.964;2024-02-16T09:28:40;6.00;;;4.63;;
59099;SDS011;44884;52.730;6.964;2024-02-16T09:31:06;5.28;;;3.60;;
59099;SDS011;44884;52.730;6.964;2024-02-16T09:33:33;4.32;;;3.90;;
59099;SDS011;44884;52.730;6.964;2024-02-16T09:36:00;7.90;;;4.10;;
59099;SDS011;44884;52.730;6.964;2024-02-16T09:38:26;5.68;;;4.32;;
59099;SDS011;44884;52.730;6.964;2024-02-16T09:40:52;8.27;;;4.30;;
59099;SDS011;44884;52.730;6.964;2024-02-16T09:43:24;6.15;;;3.83;;
59099;SDS011;44884;52.730;6.964;2024-02-16T09:48:17;4.78;;;4.28;;
59099;SDS011;44884;52.730;6.964;2024-02-16T09:50:43;4.53;;;3.97;;
59099;SDS011;44884;52.730;6.964;2024-02-16T09:53:11;7.10;;;4.10;;
59099;SDS011;44884;52.730;6.964;2024-02-16T09:55:37;4.70;;;4.05;;
59099;SDS011;44884;52.730;6.964;2024-02-16T09:58:03;6.68;;;3.95;;
59099;SDS011;44884;52.730;6.964;2024-02-16T10:00:30;4.78;;;3.75;;
59099;SDS011;44884;52.730;6.964;2024-02-16T10:02:56;4.47;;;4.03;;
59099;SDS011;44884;52.730;6.964;2024-02-16T10:05:22;9.30;;;4.40;;
59099;SDS011;44884;52.730;6.964;2024-02-16T10:07:48;6.63;;;4.93;;
59099;SDS011;44884;52.730;6.964;2024-02-16T10:10:24;5.03;;;4.07;;
59099;SDS011;44884;52.730;6.964;2024-02-16T10:13:00;5.40;;;4.60;;
59099;SDS011;44884;52.730;6.964;2024-02-16T10:15:26;8.98;;;4.75;;
59099;SDS011;44884;52.730;6.964;2024-02-16T10:20:24;6.00;;;4.30;;
59099;SDS011;44884;52.730;6.964;2024-02-16T10:23:01;4.15;;;3.75;;
59099;SDS011;44884;52.730;6.964;2024-02-16T10:25:27;4.57;;;4.10;;
59099;SDS011;44884;52.730;6.964;2024-02-16T10:27:54;4.30;;;3.88;;
59099;SDS011;44884;52.730;6.964;2024-02-16T10:30:20;5.38;;;4.07;;
59099;SDS011;44884;52.730;6.964;2024-02-16T10:32:48;4.00;;;3.40;;
59099;SDS011;44884;52.730;6.964;2024-02-16T10:35:14;5.38;;;4.60;;
59099;SDS011;44884;52.730;6.964;2024-02-16T10:37:40;5.47;;;4.60;;
59099;SDS011;44884;52.730;6.964;2024-02-16T10:40:07;5.50;;;4.68;;
59099;SDS011;44884;52.730;6.964;2024-02-16T10:42:37;8.13;;;3.88;;
59099;SDS011;44884;52.730;6.964;2024-02-16T10:45:03;6.90;;;4.38;;
59099;SDS011;44884;52.730;6.964;2024-02-16T10:47:30;5.65;;;4.65;;
59099;SDS011;44884;52.730;6.964;2024-02-16T10:49:56;6.50;;;4.70;;
59099;SDS011;44884;52.730;6.964;2024-02-16T10:52:22;4.18;;;3.78;;
59099;SDS011;44884;52.730;6.964;2024-02-16T10:54:50;7.10;;;4.93;;
59099;SDS011;44884;52.730;6.964;2024-02-16T10:57:16;4.43;;;3.80;;
59099;SDS011;44884;52.730;6.964;2024-02-16T10:59:42;5.43;;;4.38;;
59099;SDS011;44884;52.730;6.964;2024-02-16T11:02:09;4.95;;;4.20;;
59099;SDS011;44884;52.730;6.964;2024-02-16T11:04:39;5.55;;;4.88;;
59099;SDS011;44884;52.730;6.964;2024-02-16T11:07:11;6.15;;;4.53;;
59099;SDS011;44884;52.730;6.964;2024-02-16T11:09:38;8.23;;;5.23;;
59099;SDS011;44884;52.730;6.964;2024-02-16T11:12:05;7.15;;;4.13;;
59099;SDS011;44884;52.730;6.964;2024-02-16T11:14:36;6.45;;;4.93;;
59099;SDS011;44884;52.730;6.964;2024-02-16T11:17:07;5.63;;;4.45;;
59099;SDS011;44884;52.730;6.964;2024-02-16T11:19:34;4.40;;;3.85;;
59099;SDS011;44884;52.730;6.964;2024-02-16T11:22:04;4.03;;;3.60;;
59099;SDS011;44884;52.730;6.964;2024-02-16T11:24:42;5.70;;;3.67;;
59099;SDS011;44884;52.730;6.964;2024-02-16T11:27:09;8.65;;;4.20;;
59099;SDS011;44884;52.730;6.964;2024-02-16T11:29:36;5.15;;;4.65;;
59099;SDS011;44884;52.730;6.964;2024-02-16T11:32:03;4.03;;;3.45;;
59099;SDS011;44884;52.730;6.964;2024-02-16T11:34:29;4.70;;;3.95;;
59099;SDS011;44884;52.730;6.964;2024-02-16T11:36:56;5.88;;;5.25;;
59099;SDS011;44884;52.730;6.964;2024-02-16T11:39:22;5.82;;;4.70;;
59099;SDS011;44884;52.730;6.964;2024-02-16T11:41:58;6.07;;;4.00;;
59099;SDS011;44884;52.730;6.964;2024-02-16T11:44:26;7.05;;;4.90;;
59099;SDS011;44884;52.730;6.964;2024-02-16T11:46:55;4.30;;;3.88;;
59099;SDS011;44884;52.730;6.964;2024-02-16T11:49:21;7.28;;;4.55;;
59099;SDS011;44884;52.730;6.964;2024-02-16T11:51:47;6.82;;;4.70;;
59099;SDS011;44884;52.730;6.964;2024-02-16T11:54:13;10.52;;;4.63;;
59099;SDS011;44884;52.730;6.964;2024-02-16T11:56:42;5.63;;;5.10;;
59099;SDS011;44884;52.730;6.964;2024-02-16T11:59:11;5.50;;;4.20;;
59099;SDS011;44884;52.730;6.964;2024-02-16T12:01:47;6.07;;;4.32;;
59099;SDS011;44884;52.730;6.964;2024-02-16T12:04:22;6.75;;;4.80;;
59099;SDS011;44884;52.730;6.964;2024-02-16T12:09:18;7.50;;;6.57;;
59099;SDS011;44884;52.730;6.964;2024-02-16T12:11:46;7.88;;;6.70;;
59099;SDS011;44884;52.730;6.964;2024-02-16T12:14:12;7.13;;;5.63;;
59099;SDS011;44884;52.730;6.964;2024-02-16T12:16:38;9.48;;;7.07;;
59099;SDS011;44884;52.730;6.964;2024-02-16T12:19:04;9.63;;;6.57;;
59099;SDS011;44884;52.730;6.964;2024-02-16T12:21:31;8.20;;;6.72;;
59099;SDS011;44884;52.730;6.964;2024-02-16T12:23:57;8.18;;;6.20;;
59099;SDS011;44884;52.730;6.964;2024-02-16T12:26:23;10.95;;;7.50;;
59099;SDS011;44884;52.730;6.964;2024-02-16T12:28:49;8.20;;;7.03;;
59099;SDS011;44884;52.730;6.964;2024-02-16T12:31:19;10.70;;;6.93;;
59099;SDS011;44884;52.730;6.964;2024-02-16T12:33:45;7.03;;;5.20;;
59099;SDS011;44884;52.730;6.964;2024-02-16T12:36:12;9.57;;;6.15;;
59099;SDS011;44884;52.730;6.964;2024-02-16T12:38:38;8.20;;;6.13;;
59099;SDS011;44884;52.730;6.964;2024-02-16T12:41:04;9.27;;;7.07;;
59099;SDS011;44884;52.730;6.964;2024-02-16T12:43:31;8.00;;;6.65;;
59099;SDS011;44884;52.730;6.964;2024-02-16T12:45:57;9.00;;;6.60;;
59099;SDS011;44884;52.730;6.964;2024-02-16T12:48:27;7.47;;;6.45;;
59099;SDS011;44884;52.730;6.964;2024-02-16T12:50:53;7.22;;;6.50;;
59099;SDS011;44884;52.730;6.964;2024-02-16T12:53:19;8.90;;;6.80;;
59099;SDS011;44884;52.730;6.964;2024-02-16T12:55:49;8.05;;;6.45;;
59099;SDS011;44884;52.730;6.964;2024-02-16T12:58:15;10.77;;;7.28;;
59099;SDS011;44884;52.730;6.964;2024-02-16T13:00:41;9.57;;;7.80;;
59099;SDS011;44884;52.730;6.964;2024-02-16T13:03:07;8.57;;;6.60;;
59099;SDS011;44884;52.730;6.964;2024-02-16T13:05:33;9.60;;;6.80;;
59099;SDS011;44884;52.730;6.964;2024-02-16T13:08:00;7.60;;;6.78;;
59099;SDS011;44884;52.730;6.964;2024-02-16T13:10:26;8.20;;;7.25;;
59099;SDS011;44884;52.730;6.964;2024-02-16T13:12:52;8.40;;;7.22;;
59099;SDS011;44884;52.730;6.964;2024-02-16T13:15:18;6.80;;;6.05;;
59099;SDS011;44884;52.730;6.964;2024-02-16T13:17:44;7.78;;;6.95;;
59099;SDS011;44884;52.730;6.964;2024-02-16T13:20:10;9.30;;;6.82;;
59099;SDS011;44884;52.730;6.964;2024-02-16T13:22:36;10.32;;;7.32;;
59099;SDS011;44884;52.730;6.964;2024-02-16T13:25:03;8.73;;;6.28;;
59099;SDS011;44884;52.730;6.964;2024-02-16T13:27:29;8.85;;;7.03;;
59099;SDS011;44884;52.730;6.964;2024-02-16T13:29:55;7.95;;;6.47;;
59099;SDS011;44884;52.730;6.964;2024-02-16T13:32:21;6.93;;;6.28;;
59099;SDS011;44884;52.730;6.964;2024-02-16T13:34:47;6.70;;;6.10;;
59099;SDS011;44884;52.730;6.964;2024-02-16T13:37:14;7.72;;;6.25;;
59099;SDS011;44884;52.730;6.964;2024-02-16T13:39:40;7.68;;;6.05;;
59099;SDS011;44884;52.730;6.964;2024-02-16T13:42:06;9.60;;;6.15;;
59099;SDS011;44884;52.730;6.964;2024-02-16T13:44:32;9.70;;;6.05;;
59099;SDS011;44884;52.730;6.964;2024-02-16T13:46:58;8.07;;;6.03;;
59099;SDS011;44884;52.730;6.964;2024-02-16T13:49:24;7.18;;;6.28;;
59099;SDS011;44884;52.730;6.964;2024-02-16T13:51:50;7.07;;;6.35;;
59099;SDS011;44884;52.730;6.964;2024-02-16T13:54:16;9.65;;;5.57;;
59099;SDS011;44884;52.730;6.964;2024-02-16T13:56:42;13.98;;;5.55;;
59099;SDS011;44884;52.730;6.964;2024-02-16T13:59:09;7.13;;;5.35;;
59099;SDS011;44884;52.730;6.964;2024-02-16T14:01:35;6.57;;;5.65;;
59099;SDS011;44884;52.730;6.964;2024-02-16T14:04:02;6.20;;;5.60;;
59099;SDS011;44884;52.730;6.964;2024-02-16T14:06:28;5.97;;;5.38;;
59099;SDS011;44884;52.730;6.964;2024-02-16T14:08:56;7.05;;;6.03;;
59099;SDS011;44884;52.730;6.964;2024-02-16T14:11:22;6.35;;;5.65;;
59099;SDS011;44884;52.730;6.964;2024-02-16T14:13:49;5.07;;;4.40;;
59099;SDS011;44884;52.730;6.964;2024-02-16T14:16:15;5.28;;;4.78;;
59099;SDS011;44884;52.730;6.964;2024-02-16T14:18:41;8.70;;;4.70;;
59099;SDS011;44884;52.730;6.964;2024-02-16T14:21:08;6.35;;;5.57;;
59099;SDS011;44884;52.730;6.964;2024-02-16T14:23:34;8.88;;;5.28;;
59099;SDS011;44884;52.730;6.964;2024-02-16T14:26:00;7.70;;;4.90;;
59099;SDS011;44884;52.730;6.964;2024-02-16T14:28:26;7.43;;;5.63;;
59099;SDS011;44884;52.730;6.964;2024-02-16T14:30:52;5.47;;;4.68;;
59099;SDS011;44884;52.730;6.964;2024-02-16T14:33:18;5.38;;;4.82;;
59099;SDS011;44884;52.730;6.964;2024-02-16T14:35:45;7.03;;;5.03;;
59099;SDS011;44884;52.730;6.964;2024-02-16T14:38:12;6.78;;;5.05;;
59099;SDS011;44884;52.730;6.964;2024-02-16T14:40:38;6.35;;;5.07;;
59099;SDS011;44884;52.730;6.964;2024-02-16T14:43:05;8.07;;;6.07;;
59099;SDS011;44884;52.730;6.964;2024-02-16T14:45:32;6.13;;;5.05;;
59099;SDS011;44884;52.730;6.964;2024-02-16T14:47:58;6.45;;;5.25;;
59099;SDS011;44884;52.730;6.964;2024-02-16T14:50:24;5.38;;;4.85;;
59099;SDS011;44884;52.730;6.964;2024-02-16T14:52:50;5.40;;;4.90;;
59099;SDS011;44884;52.730;6.964;2024-02-16T14:55:16;6.05;;;4.80;;